Time;durP1;ratioP1;P1;durP2;ratioP2;P2;SDS_P1;SDS_P2;PMS_P1;PMS_P2;Temp;Humidity;BMP_temperature;BMP_pressure;BME280_temperature;BME280_humidity;BME280_pressure;Samples;Min_cycle;Max_cycle;Signal;HPM_P1;HPM_P2
2022/10/18 00:02:08;;;;;;;8.03;4.42;;;;;;;13.81;64.04;99661.34;1710267;83;27477;-63
2022/10/18 00:04:35;;;;;;;7.60;4.85;;;;;;;13.79;64.15;99663.61;1706902;83;25748;-63
2022/10/18 00:07:01;;;;;;;9.75;5.40;;;;;;;13.76;63.92;99670.53;1710682;83;25642;-63
2022/10/18 00:09:27;;;;;;;10.03;5.00;;;;;;;13.73;63.97;99672.53;1710220;83;25767;-62
2022/10/18 00:11:55;;;;;;;7.65;4.85;;;;;;;13.71;63.91;99676.18;1710771;83;25578;-63
2022/10/18 00:14:22;;;;;;;8.93;5.03;;;;;;;13.69;63.82;99677.04;1710213;83;27421;-62
2022/10/18 00:16:48;;;;;;;8.85;5.15;;;;;;;13.59;63.99;99665.70;1710776;83;25413;-62
2022/10/18 00:19:14;;;;;;;9.55;5.65;;;;;;;13.59;63.99;99665.70;1710760;83;25452;-62
2022/10/18 00:21:41;;;;;;;11.18;5.35;;;;;;;13.62;64.04;99678.83;1710251;83;27820;-63
2022/10/18 00:24:07;;;;;;;9.05;5.37;;;;;;;13.58;63.97;99676.45;1710258;83;25681;-63
2022/10/18 00:26:33;;;;;;;9.98;5.25;;;;;;;13.57;63.96;99676.75;1706792;83;27477;-62
2022/10/18 00:29:04;;;;;;;9.30;5.17;;;;;;;13.52;64.13;99674.92;1700438;83;25536;-63
2022/10/18 00:31:34;;;;;;;8.88;5.42;;;;;;;13.47;64.12;99680.53;1700348;83;25475;-62
2022/10/18 00:34:04;;;;;;;12.30;6.22;;;;;;;13.46;64.13;99674.20;1700665;84;25725;-61
2022/10/18 00:36:35;;;;;;;8.55;5.40;;;;;;;13.44;64.21;99679.19;1700578;83;25686;-63
2022/10/18 00:39:05;;;;;;;10.05;5.50;;;;;;;13.37;64.26;99676.87;1700138;84;27404;-63
2022/10/18 00:41:34;;;;;;;8.93;5.50;;;;;;;13.34;64.23;99670.59;1700247;84;25697;-63
2022/10/18 00:44:11;;;;;;;9.15;5.33;;;;;;;13.34;64.34;99666.47;1700566;84;25663;-62
2022/10/18 00:46:43;;;;;;;10.85;5.30;;;;;;;13.33;64.35;99670.91;1700523;83;25719;-63
2022/10/18 00:49:16;;;;;;;11.45;5.35;;;;;;;13.34;64.36;99675.28;1699973;84;25715;-62
2022/10/18 00:51:50;;;;;;;10.18;5.28;;;;;;;13.38;64.20;99670.78;1700398;84;27606;-61
2022/10/18 00:54:19;;;;;;;8.78;5.70;;;;;;;13.37;64.22;99669.98;1700546;84;25659;-61
2022/10/18 00:56:45;;;;;;;10.82;5.90;;;;;;;13.38;64.25;99670.78;1700405;83;25628;-62
2022/10/18 00:59:15;;;;;;;10.32;5.22;;;;;;;13.39;64.33;99673.23;1700468;84;25529;-62
2022/10/18 01:01:41;;;;;;;11.65;6.47;;;;;;;13.42;64.20;99662.18;1700401;84;25495;-62
2022/10/18 01:04:07;;;;;;;9.38;5.05;;;;;;;13.40;64.24;99656.98;1700099;84;27496;-62
2022/10/18 01:06:39;;;;;;;10.78;5.10;;;;;;;13.40;64.25;99652.02;1700015;84;25718;-62
2022/10/18 01:09:19;;;;;;;7.15;4.75;;;;;;;13.40;64.24;99654.22;1697682;83;25750;-62
2022/10/18 01:12:10;;;;;;;8.70;5.25;;;;;;;13.42;64.17;99653.92;1703233;83;25743;-62
2022/10/18 01:15:08;;;;;;;9.93;4.95;;;;;;;13.40;64.09;99651.47;1717364;83;25761;-62
2022/10/18 01:18:05;;;;;;;10.38;5.12;;;;;;;13.40;64.17;99647.89;1717151;83;27324;-62
2022/10/18 01:21:04;;;;;;;8.75;5.17;;;;;;;13.38;64.23;99646.00;1716911;83;25755;-63
2022/10/18 01:24:06;;;;;;;8.80;4.75;;;;;;;13.37;64.08;99649.34;1717010;83;25521;-63
2022/10/18 01:27:06;;;;;;;9.35;5.67;;;;;;;13.34;64.11;99641.69;1717230;83;25756;-62
2022/10/18 01:30:08;;;;;;;9.48;4.50;;;;;;;13.33;64.14;99648.33;1719611;83;25540;-63
2022/10/18 01:32:40;;;;;;;10.13;5.55;;;;;;;13.33;64.26;99646.12;1719218;83;27435;-61
2022/10/18 01:35:11;;;;;;;9.93;5.75;;;;;;;13.33;64.08;99637.87;1719251;83;25682;-62
2022/10/18 01:37:41;;;;;;;14.00;5.75;;;;;;;13.30;64.11;99645.61;1719581;83;25635;-62
2022/10/18 01:40:11;;;;;;;10.60;5.37;;;;;;;13.26;64.14;99641.85;1719542;83;25730;-61
2022/10/18 01:42:39;;;;;;;8.57;5.17;;;;;;;13.12;64.12;99632.78;1719909;83;25650;-61
2022/10/18 01:45:08;;;;;;;9.35;5.37;;;;;;;13.12;64.12;99632.78;1719126;83;27487;-60
2022/10/18 01:47:36;;;;;;;10.28;6.17;;;;;;;13.10;64.30;99638.59;1719490;83;25748;-62
2022/10/18 01:50:06;;;;;;;12.53;6.70;;;;;;;12.95;64.63;99638.34;1719375;83;25492;-62
2022/10/18 01:52:33;;;;;;;11.40;6.70;;;;;;;12.85;64.99;99641.30;1703453;83;25825;-62
2022/10/18 01:55:01;;;;;;;10.25;6.30;;;;;;;12.77;65.05;99635.94;1700368;84;25509;-61
2022/10/18 01:57:53;;;;;;;11.38;5.90;;;;;;;12.69;65.24;99640.79;1700079;84;27327;-61
2022/10/18 02:00:28;;;;;;;10.80;5.95;;;;;;;12.67;65.38;99632.27;1700037;84;25496;-62
2022/10/18 02:03:03;;;;;;;11.70;6.40;;;;;;;12.69;65.25;99632.53;1700078;84;25634;-62
2022/10/18 02:06:00;;;;;;;11.18;7.00;;;;;;;12.72;65.28;99636.05;1700229;84;25734;-62
2022/10/18 02:08:31;;;;;;;11.18;5.90;;;;;;;12.71;65.29;99632.48;1699781;84;25627;-62
2022/10/18 02:11:13;;;;;;;11.00;5.92;;;;;;;12.67;65.39;99632.84;1700395;84;29951;-62
2022/10/18 02:13:45;;;;;;;11.68;6.53;;;;;;;12.65;65.41;99634.52;1700262;84;25477;-62
2022/10/18 02:16:15;;;;;;;9.80;6.22;;;;;;;12.58;65.47;99635.45;1700362;83;25681;-62
2022/10/18 02:18:56;;;;;;;13.62;5.87;;;;;;;12.47;65.87;99630.72;1700202;84;25745;-62
2022/10/18 02:21:25;;;;;;;9.63;5.85;;;;;;;12.39;66.01;99633.61;1700574;84;25478;-62
2022/10/18 02:23:52;;;;;;;11.12;6.28;;;;;;;12.36;66.03;99621.84;1700342;84;27446;-62
2022/10/18 02:26:18;;;;;;;13.48;6.20;;;;;;;12.29;66.34;99632.39;1700323;84;25874;-62
2022/10/18 02:28:45;;;;;;;11.20;5.08;;;;;;;12.23;66.45;99618.50;1710628;83;25488;-62
2022/10/18 02:31:23;;;;;;;7.83;4.78;;;;;;;12.24;66.89;99617.38;1710428;83;25842;-62
2022/10/18 02:34:19;;;;;;;8.38;5.33;;;;;;;12.26;66.91;99620.08;1710541;83;25590;-62
2022/10/18 02:36:58;;;;;;;7.97;4.95;;;;;;;12.27;66.60;99620.90;1710508;83;27460;-62
2022/10/18 02:39:35;;;;;;;7.47;5.40;;;;;;;12.28;66.96;99618.40;1710606;83;25448;-62
2022/10/18 02:42:07;;;;;;;9.25;5.17;;;;;;;12.32;66.61;99622.75;1710360;83;25612;-61
2022/10/18 02:44:35;;;;;;;9.28;5.60;;;;;;;12.30;66.54;99621.09;1710334;83;26749;-61
2022/10/18 02:47:04;;;;;;;6.85;5.45;;;;;;;12.25;66.59;99621.20;1710671;83;25602;-62
2022/10/18 02:49:30;;;;;;;10.72;5.83;;;;;;;12.19;66.71;99621.58;1710335;83;27393;-62
2022/10/18 02:51:57;;;;;;;10.05;6.15;;;;;;;12.12;66.80;99616.48;1710723;83;25512;-62
2022/10/18 02:54:23;;;;;;;8.73;6.25;;;;;;;12.04;67.04;99622.08;1710307;83;25488;-62
2022/10/18 02:56:49;;;;;;;9.45;6.12;;;;;;;11.95;67.21;99613.70;1710781;83;25757;-61
2022/10/18 02:59:16;;;;;;;7.92;5.55;;;;;;;11.91;67.53;99614.84;1708241;83;25888;-61
2022/10/18 03:01:42;;;;;;;10.23;5.87;;;;;;;11.91;67.89;99605.78;1710626;83;27605;-61
2022/10/18 03:04:09;;;;;;;8.93;5.15;;;;;;;11.96;67.79;99603.52;1710244;83;25679;-63
2022/10/18 03:06:35;;;;;;;8.10;4.83;;;;;;;11.99;68.24;99602.91;1711272;83;25626;-62
2022/10/18 03:09:04;;;;;;;8.68;5.00;;;;;;;12.07;68.26;99605.53;1710269;83;25796;-62
2022/10/18 03:11:31;;;;;;;7.60;5.37;;;;;;;12.11;68.08;99599.72;1710747;83;25441;-62
2022/10/18 03:13:57;;;;;;;8.28;5.60;;;;;;;12.16;67.92;99598.27;1710248;83;27486;-61
2022/10/18 03:16:24;;;;;;;7.53;4.78;;;;;;;12.17;67.83;99596.59;1710713;83;25594;-62
2022/10/18 03:18:50;;;;;;;7.95;5.83;;;;;;;12.20;67.83;99595.17;1710876;83;25714;-62
2022/10/18 03:21:16;;;;;;;7.90;5.42;;;;;;;12.25;67.66;99593.72;1710735;83;25765;-62
2022/10/18 03:23:42;;;;;;;10.25;5.65;;;;;;;12.32;67.46;99590.56;1710601;83;25711;-62
2022/10/18 03:26:10;;;;;;;10.70;5.78;;;;;;;12.36;67.42;99590.78;1710514;83;28263;-62
2022/10/18 03:28:36;;;;;;;10.28;5.30;;;;;;;12.40;67.27;99588.50;1701948;83;25444;-61
2022/10/18 03:31:04;;;;;;;7.95;5.62;;;;;;;12.40;67.31;99590.42;1700126;84;25182;-62
2022/10/18 03:33:31;;;;;;;9.90;6.37;;;;;;;12.42;67.29;99592.32;1700136;84;25780;-62
2022/10/18 03:35:58;;;;;;;8.03;5.85;;;;;;;12.40;67.22;99594.00;1700570;83;25638;-61
2022/10/18 03:38:24;;;;;;;8.93;6.08;;;;;;;12.38;67.18;99585.80;1700189;84;27437;-62
2022/10/18 03:40:50;;;;;;;8.83;5.60;;;;;;;12.35;67.21;99585.83;1700744;84;25640;-61
2022/10/18 03:43:17;;;;;;;9.83;6.12;;;;;;;12.32;67.26;99591.94;1700066;83;25641;-61
2022/10/18 03:45:43;;;;;;;10.40;5.47;;;;;;;12.27;67.38;99587.92;1700261;83;25900;-62
2022/10/18 03:48:09;;;;;;;10.05;6.92;;;;;;;12.25;67.37;99589.59;1700326;84;25641;-62
2022/10/18 03:50:36;;;;;;;10.23;6.35;;;;;;;12.25;67.38;99586.84;1700086;84;28428;-61
2022/10/18 03:53:02;;;;;;;9.13;5.40;;;;;;;12.23;67.40;99587.70;1700193;83;25624;-61
2022/10/18 03:55:29;;;;;;;8.40;5.33;;;;;;;12.22;67.54;99592.13;1700283;84;25666;-62
2022/10/18 03:57:55;;;;;;;8.63;6.40;;;;;;;12.18;67.78;99597.42;1700327;84;25665;-61
2022/10/18 04:00:21;;;;;;;12.37;5.85;;;;;;;12.17;67.55;99597.97;1700324;84;25520;-62
2022/10/18 04:02:49;;;;;;;13.20;5.75;;;;;;;12.15;67.57;99597.45;1700393;83;27958;-61
2022/10/18 04:05:15;;;;;;;11.38;5.78;;;;;;;12.12;67.76;99600.80;1700068;84;25686;-61
2022/10/18 04:07:41;;;;;;;8.55;6.05;;;;;;;12.05;67.83;99605.29;1700181;84;25658;-62
2022/10/18 04:10:08;;;;;;;8.93;6.12;;;;;;;12.00;67.98;99611.44;1700153;84;27189;-62
2022/10/18 04:12:35;;;;;;;9.68;5.90;;;;;;;11.93;68.13;99607.69;1700375;83;25678;-62
2022/10/18 04:15:01;;;;;;;12.63;6.87;;;;;;;11.92;68.17;99612.93;1700441;84;28278;-61
2022/10/18 04:17:27;;;;;;;13.03;8.83;;;;;;;11.89;68.23;99606.66;1700299;84;26045;-61
2022/10/18 04:19:54;;;;;;;11.30;7.65;;;;;;;11.85;68.38;99605.61;1700166;84;25517;-62
2022/10/18 04:22:20;;;;;;;11.20;6.08;;;;;;;11.80;68.79;99601.00;1700636;84;25693;-62
2022/10/18 04:24:46;;;;;;;7.05;4.85;;;;;;;11.76;69.01;99604.09;1700677;84;25611;-61
2022/10/18 04:27:12;;;;;;;8.78;6.00;;;;;;;11.72;69.39;99594.29;1700797;84;27667;-60
2022/10/18 04:29:38;;;;;;;7.00;5.30;;;;;;;11.73;69.39;99597.83;1700402;84;25919;-62
2022/10/18 04:32:04;;;;;;;7.65;5.30;;;;;;;11.74;69.31;99596.70;1700174;84;25470;-62
2022/10/18 04:34:31;;;;;;;12.07;6.53;;;;;;;11.80;69.01;99607.33;1700439;84;25687;-61
2022/10/18 04:36:57;;;;;;;12.53;6.58;;;;;;;11.82;69.10;99614.44;1700308;84;25493;-62
2022/10/18 04:39:24;;;;;;;11.20;7.00;;;;;;;11.67;69.50;99622.64;1700374;84;27412;-62
2022/10/18 04:41:51;;;;;;;12.98;7.35;;;;;;;11.57;69.66;99619.22;1700047;84;25666;-61
2022/10/18 04:44:17;;;;;;;10.75;7.25;;;;;;;11.38;70.58;99625.51;1700409;84;25452;-62
2022/10/18 04:46:43;;;;;;;16.90;7.50;;;;;;;11.17;70.50;99627.16;1700374;84;26584;-62
2022/10/18 04:49:10;;;;;;;13.83;7.83;;;;;;;11.08;70.29;99625.60;1700659;84;25460;-62
2022/10/18 04:51:36;;;;;;;14.50;8.63;;;;;;;11.04;70.43;99620.45;1700142;83;27357;-62
2022/10/18 04:54:03;;;;;;;15.38;9.25;;;;;;;11.02;70.55;99619.91;1699948;84;25679;-62
2022/10/18 04:56:29;;;;;;;9.60;6.47;;;;;;;10.98;70.63;99618.88;1700657;84;25665;-62
2022/10/18 04:58:55;;;;;;;11.38;7.37;;;;;;;10.89;71.64;99610.48;1700433;84;25748;-61
2022/10/18 05:01:21;;;;;;;16.27;7.55;;;;;;;10.90;71.34;99606.08;1700134;84;25497;-61
2022/10/18 05:03:53;;;;;;;10.13;7.50;;;;;;;10.87;71.39;99604.46;1700593;84;27469;-62
2022/10/18 05:06:20;;;;;;;16.05;7.00;;;;;;;10.90;71.47;99606.08;1700333;84;25694;-62
2022/10/18 05:08:46;;;;;;;9.60;6.40;;;;;;;10.98;71.28;99605.16;1700445;84;25449;-60
2022/10/18 05:11:13;;;;;;;9.68;6.62;;;;;;;11.07;70.87;99607.52;1700404;84;25914;-62
2022/10/18 05:13:39;;;;;;;12.60;7.80;;;;;;;11.09;70.78;99621.77;1665813;84;26282;-61
2022/10/18 05:16:06;;;;;;;13.15;9.23;;;;;;;11.02;71.06;99619.91;1656342;86;27445;-61
2022/10/18 05:18:33;;;;;;;16.85;10.45;;;;;;;10.93;71.42;99616.21;1656168;86;25684;-62
2022/10/18 05:20:59;;;;;;;15.90;10.23;;;;;;;10.85;71.29;99615.72;1656627;86;25507;-61
2022/10/18 05:23:25;;;;;;;16.97;10.08;;;;;;;10.82;71.51;99621.78;1667457;84;25791;-60
2022/10/18 05:25:53;;;;;;;18.92;11.15;;;;;;;10.82;71.46;99617.67;1676747;84;25745;-61
2022/10/18 05:28:19;;;;;;;30.65;15.48;;;;;;;10.77;71.72;99618.55;1687116;83;29390;-61
2022/10/18 05:30:46;;;;;;;18.40;9.80;;;;;;;10.77;71.78;99626.77;1694093;84;26234;-60
2022/10/18 05:33:12;;;;;;;12.60;7.83;;;;;;;10.71;72.71;99618.91;1701470;84;25444;-61
2022/10/18 05:35:38;;;;;;;16.02;10.30;;;;;;;10.47;73.61;99625.17;1702031;84;25752;-61
2022/10/18 05:38:05;;;;;;;16.60;9.15;;;;;;;10.33;73.05;99621.70;1701822;84;25469;-60
2022/10/18 05:40:39;;;;;;;17.85;9.70;;;;;;;10.21;73.71;99623.47;1701649;84;27451;-61
2022/10/18 05:43:05;;;;;;;16.62;9.40;;;;;;;10.14;73.51;99619.67;1701493;84;25478;-62
2022/10/18 05:45:31;;;;;;;18.75;9.85;;;;;;;10.18;73.58;99619.93;1701587;84;25488;-62
2022/10/18 05:47:57;;;;;;;18.37;10.25;;;;;;;10.27;73.54;99622.31;1701616;84;25913;-60
2022/10/18 05:50:24;;;;;;;15.85;9.40;;;;;;;10.39;73.40;99620.55;1701707;84;25496;-61
2022/10/18 05:52:50;;;;;;;18.65;9.20;;;;;;;10.51;73.35;99617.45;1701551;84;27556;-62
2022/10/18 05:55:17;;;;;;;14.65;8.68;;;;;;;10.64;73.27;99616.50;1701510;84;25608;-61
2022/10/18 05:57:44;;;;;;;15.00;8.63;;;;;;;10.75;73.08;99615.30;1701668;84;25460;-61
2022/10/18 06:00:12;;;;;;;15.25;8.10;;;;;;;10.86;72.99;99614.63;1683765;84;25756;-62
2022/10/18 06:02:39;;;;;;;12.35;8.05;;;;;;;10.96;72.84;99615.59;1701559;84;25612;-61
2022/10/18 06:05:06;;;;;;;12.53;7.80;;;;;;;11.06;72.77;99614.13;1701655;84;27621;-61
2022/10/18 06:07:32;;;;;;;10.88;6.78;;;;;;;11.16;72.65;99604.93;1699805;83;25681;-57
2022/10/18 06:09:59;;;;;;;13.43;7.20;;;;;;;11.28;72.39;99603.95;1700955;84;25592;-61
2022/10/18 06:12:25;;;;;;;11.38;6.85;;;;;;;11.41;72.32;99601.59;1701738;84;25922;-61
2022/10/18 06:14:51;;;;;;;10.85;6.67;;;;;;;11.49;72.22;99601.48;1701725;83;25496;-61
2022/10/18 06:17:18;;;;;;;9.38;6.12;;;;;;;11.58;72.01;99607.94;1701639;84;27459;-62
2022/10/18 06:19:44;;;;;;;13.00;6.70;;;;;;;11.69;71.74;99609.16;1702058;83;25709;-61
2022/10/18 06:22:12;;;;;;;10.45;6.95;;;;;;;11.82;71.57;99613.89;1701845;84;25457;-62
2022/10/18 06:24:38;;;;;;;16.55;6.80;;;;;;;11.92;71.42;99610.18;1702146;84;25779;-62
2022/10/18 06:27:07;;;;;;;15.63;6.70;;;;;;;12.04;71.36;99608.34;1702132;84;25457;-62
2022/10/18 06:29:33;;;;;;;14.00;6.83;;;;;;;12.16;71.12;99614.76;1709103;83;26668;-62
2022/10/18 06:31:59;;;;;;;12.00;7.25;;;;;;;12.28;71.07;99610.98;1711092;83;25524;-61
2022/10/18 06:34:26;;;;;;;14.43;7.12;;;;;;;12.41;70.84;99616.23;1711093;83;25681;-62
2022/10/18 06:36:52;;;;;;;14.20;7.20;;;;;;;12.48;70.64;99611.73;1711052;83;25860;-61
2022/10/18 06:39:22;;;;;;;13.93;7.22;;;;;;;12.58;70.57;99614.83;1711121;83;25682;-60
2022/10/18 06:41:49;;;;;;;13.15;7.75;;;;;;;12.70;70.64;99614.91;1711620;83;27365;-62
2022/10/18 06:44:16;;;;;;;15.00;7.97;;;;;;;12.83;70.35;99616.84;1711047;83;27152;-61
2022/10/18 06:46:45;;;;;;;14.78;7.30;;;;;;;12.96;70.05;99612.48;1711425;83;25658;-60
2022/10/18 06:49:13;;;;;;;15.40;6.97;;;;;;;13.10;69.81;99610.27;1711405;83;25884;-61
2022/10/18 06:51:41;;;;;;;13.55;7.35;;;;;;;13.25;69.35;99609.12;1711612;83;25496;-61
2022/10/18 06:54:08;;;;;;;10.15;6.87;;;;;;;13.41;69.01;99610.97;1711439;83;28182;-61
2022/10/18 06:56:35;;;;;;;14.20;7.35;;;;;;;13.57;68.63;99612.04;1711121;83;25653;-62
2022/10/18 06:59:02;;;;;;;16.02;7.10;;;;;;;13.72;68.65;99608.11;1711230;83;25702;-61
2022/10/18 07:01:29;;;;;;;10.70;7.40;;;;;;;13.87;68.07;99607.75;1711210;83;25681;-62
2022/10/18 07:03:56;;;;;;;10.38;6.33;;;;;;;14.03;67.84;99609.58;1711132;83;25543;-62
2022/10/18 07:06:24;;;;;;;10.30;6.17;;;;;;;14.21;66.83;99612.99;1711210;83;27239;-60
2022/10/18 07:08:52;;;;;;;12.55;6.28;;;;;;;14.33;66.57;99613.82;1710999;83;27149;-61
2022/10/18 07:11:23;;;;;;;12.43;6.00;;;;;;;14.48;66.42;99614.77;1707470;83;25624;-62
2022/10/18 07:13:53;;;;;;;11.33;6.33;;;;;;;14.65;66.49;99614.05;1711095;83;26546;-62
2022/10/18 07:16:19;;;;;;;11.70;5.95;;;;;;;14.85;66.09;99610.50;1711489;83;25728;-62
2022/10/18 07:18:49;;;;;;;9.98;5.42;;;;;;;15.08;65.82;99614.55;1711087;83;27606;-60
2022/10/18 07:21:21;;;;;;;8.00;5.33;;;;;;;15.33;64.34;99608.59;1711622;83;25806;-61
2022/10/18 07:23:49;;;;;;;9.70;5.62;;;;;;;15.74;63.28;99603.73;1711431;83;25666;-63
2022/10/18 07:26:29;;;;;;;10.28;5.42;;;;;;;15.74;63.28;99603.73;1710982;83;25766;-62
2022/10/18 07:29:02;;;;;;;14.27;6.23;;;;;;;15.85;63.41;99605.05;1711818;83;25758;-62
2022/10/18 07:31:28;;;;;;;11.85;6.45;;;;;;;16.11;62.68;99613.09;1710888;83;27477;-62
2022/10/18 07:33:55;;;;;;;8.93;5.67;;;;;;;16.27;62.46;99603.72;1711268;83;25614;-63
2022/10/18 07:36:41;;;;;;;10.10;5.65;;;;;;;16.56;62.16;99607.70;1711460;83;25467;-63
2022/10/18 07:39:07;;;;;;;9.28;5.90;;;;;;;16.83;60.32;99607.58;1652807;85;25931;-62
2022/10/18 07:41:34;;;;;;;8.43;6.03;;;;;;;17.04;60.28;99611.81;1667208;85;25487;-62
2022/10/18 07:44:03;;;;;;;12.58;6.50;;;;;;;17.23;60.12;99609.19;1667300;86;27427;-62
2022/10/18 07:46:30;;;;;;;9.78;5.85;;;;;;;17.55;59.75;99605.47;1667457;86;25718;-63
2022/10/18 07:48:58;;;;;;;8.78;5.75;;;;;;;17.78;59.19;99602.35;1667460;86;25609;-63
2022/10/18 07:51:25;;;;;;;8.85;5.20;;;;;;;18.06;58.29;99600.39;1666975;86;25667;-62
2022/10/18 07:53:52;;;;;;;8.00;5.40;;;;;;;18.33;57.42;99597.39;1667108;86;25771;-63
2022/10/18 07:56:20;;;;;;;7.17;4.72;;;;;;;18.61;57.67;99594.77;1667326;86;27379;-62
2022/10/18 07:58:52;;;;;;;8.40;4.97;;;;;;;19.03;55.68;99594.31;1667285;85;25938;-63
2022/10/18 08:01:21;;;;;;;8.63;5.25;;;;;;;19.17;55.38;99592.00;1667397;86;25692;-62
2022/10/18 08:03:47;;;;;;;7.42;4.55;;;;;;;19.40;55.64;99585.15;1667182;86;25900;-63
2022/10/18 08:06:17;;;;;;;6.67;4.70;;;;;;;19.74;53.45;99588.50;1667146;86;25611;-63
2022/10/18 08:08:45;;;;;;;9.80;4.78;;;;;;;20.10;53.84;99585.14;1667440;86;27503;-63
2022/10/18 08:11:16;;;;;;;5.95;4.65;;;;;;;20.43;53.04;99575.66;1666956;85;25659;-62
2022/10/18 08:13:44;;;;;;;9.15;5.15;;;;;;;20.86;52.11;99589.84;1666501;86;25735;-62
2022/10/18 08:16:15;;;;;;;8.68;5.03;;;;;;;21.26;49.06;99583.01;1667466;86;26385;-62
2022/10/18 08:18:42;;;;;;;6.92;4.62;;;;;;;21.59;49.66;99582.32;1667413;86;25662;-61
2022/10/18 08:21:11;;;;;;;7.70;4.95;;;;;;;21.86;45.69;99588.88;1667334;86;27452;-61
2022/10/18 08:23:38;;;;;;;6.80;4.42;;;;;;;22.13;47.79;99578.43;1634634;86;26220;-63
2022/10/18 08:26:09;;;;;;;8.98;4.67;;;;;;;22.54;46.95;99568.17;1667042;85;25642;-62
2022/10/18 08:28:35;;;;;;;5.67;4.70;;;;;;;22.85;47.11;99565.50;1667146;86;25833;-63
2022/10/18 08:31:08;;;;;;;9.08;5.03;;;;;;;23.28;45.54;99557.72;1667036;85;25634;-63
2022/10/18 08:33:35;;;;;;;8.65;4.60;;;;;;;23.58;43.86;99567.33;1667316;86;27648;-61
2022/10/18 08:36:04;;;;;;;5.53;4.33;;;;;;;23.60;43.45;99563.55;1667020;86;25618;-62
2022/10/18 08:38:37;;;;;;;8.08;4.15;;;;;;;23.85;44.18;99570.04;1664304;85;25439;-62
2022/10/18 08:41:27;;;;;;;7.00;4.33;;;;;;;24.22;43.91;99567.05;1663067;86;26293;-61
2022/10/18 08:44:01;;;;;;;5.33;4.45;;;;;;;24.55;42.39;99560.33;1662846;86;25748;-62
2022/10/18 08:46:29;;;;;;;6.70;4.37;;;;;;;25.05;42.48;99559.13;1657760;86;27437;-62
2022/10/18 08:48:56;;;;;;;5.42;4.15;;;;;;;25.41;42.17;99554.30;1653294;86;25696;-62
2022/10/18 08:51:30;;;;;;;4.72;3.98;;;;;;;25.65;39.28;99553.44;1653424;86;25693;-61
2022/10/18 08:54:05;;;;;;;5.40;4.10;;;;;;;25.65;39.42;99551.41;1653340;86;25758;-61
2022/10/18 08:56:33;;;;;;;6.87;4.10;;;;;;;25.60;36.90;99550.41;1653800;86;25734;-62
2022/10/18 08:59:03;;;;;;;4.53;4.03;;;;;;;25.67;37.98;99549.62;1653354;86;27400;-62
2022/10/18 09:01:55;;;;;;;7.22;4.30;;;;;;;25.81;38.04;99543.25;1653569;86;25456;-62
2022/10/18 09:05:02;;;;;;;8.83;4.87;;;;;;;26.03;37.70;99539.09;1652843;86;25666;-62
2022/10/18 09:07:58;;;;;;;8.95;4.40;;;;;;;26.29;38.08;99538.52;1618595;88;25815;-62
2022/10/18 09:10:35;;;;;;;7.80;4.10;;;;;;;26.59;37.85;99542.97;1635810;87;25674;-62
2022/10/18 09:13:28;;;;;;;6.47;4.03;;;;;;;26.81;37.06;99533.11;1622057;88;27487;-62
2022/10/18 09:16:01;;;;;;;6.00;3.77;;;;;;;27.23;36.85;99536.86;1635147;87;25763;-63
2022/10/18 09:19:07;;;;;;;6.53;4.10;;;;;;;27.22;34.80;99529.61;1619408;88;26553;-62
2022/10/18 09:21:51;;;;;;;5.00;3.70;;;;;;;27.29;36.33;99529.61;1623179;88;25794;-62
2022/10/18 09:24:44;;;;;;;4.12;3.33;;;;;;;27.58;33.46;99528.08;1633309;87;25761;-62
2022/10/18 09:27:17;;;;;;;6.17;3.75;;;;;;;27.50;32.34;99526.50;1623667;88;27382;-64
2022/10/18 09:30:15;;;;;;;5.90;3.60;;;;;;;27.35;33.79;99522.35;1623537;88;25769;-62
2022/10/18 09:33:11;;;;;;;9.70;4.15;;;;;;;27.59;33.87;99522.64;1623468;88;25581;-61
2022/10/18 09:35:51;;;;;;;5.05;4.15;;;;;;;27.90;33.44;99524.91;1635792;87;25753;-61
2022/10/18 09:38:22;;;;;;;5.75;3.90;;;;;;;28.03;33.05;99525.22;1621374;88;25567;-60
2022/10/18 09:40:53;;;;;;;6.12;3.77;;;;;;;28.13;32.97;99515.09;1620520;86;27460;-61
2022/10/18 09:43:34;;;;;;;4.20;3.80;;;;;;;28.38;33.30;99516.95;1658143;86;25705;-62
2022/10/18 09:46:02;;;;;;;5.70;3.67;;;;;;;28.75;32.81;99513.98;1616440;88;25777;-61
2022/10/18 09:48:37;;;;;;;7.75;3.62;;;;;;;29.16;31.91;99508.75;1616815;88;25850;-63
2022/10/18 09:51:11;;;;;;;4.45;3.47;;;;;;;29.40;31.33;99508.25;1616480;88;25565;-61
2022/10/18 09:54:22;;;;;;;5.42;4.40;;;;;;;29.30;29.56;99509.20;1616917;88;27583;-62
2022/10/18 09:57:06;;;;;;;5.20;3.77;;;;;;;28.88;29.74;99504.39;1616695;88;25656;-62
2022/10/18 09:59:42;;;;;;;5.45;3.98;;;;;;;29.02;31.22;99497.83;1617014;88;25762;-62
2022/10/18 10:02:21;;;;;;;6.25;3.90;;;;;;;29.17;30.21;99510.34;1616648;88;25767;-62
2022/10/18 10:04:49;;;;;;;;;;;;;;;29.02;30.58;99495.61;1619091;88;25716;-61
2022/10/18 10:07:28;;;;;;;4.90;3.47;;;;;;;29.01;29.97;99503.89;1630889;88;27418;-57
2022/10/18 10:10:05;;;;;;;6.25;3.62;;;;;;;28.96;29.07;99502.93;1616671;88;25569;-56
2022/10/18 10:12:38;;;;;;;3.98;3.52;;;;;;;29.07;29.07;99498.58;1616468;88;25956;-58
2022/10/18 10:15:22;;;;;;;6.05;3.47;;;;;;;29.28;29.84;99494.09;1608247;88;25909;-58
2022/10/18 10:18:08;;;;;;;5.10;4.03;;;;;;;29.46;28.71;99483.77;1602470;88;25797;-58
2022/10/18 10:20:50;;;;;;;6.72;4.28;;;;;;;29.41;30.19;99480.80;1606238;88;28245;-58
2022/10/18 10:23:34;;;;;;;5.55;3.52;;;;;;;29.48;30.29;99477.91;1628287;86;25769;-60
2022/10/18 10:26:06;;;;;;;6.65;4.75;;;;;;;29.35;29.26;99471.20;1655564;86;25655;-58
2022/10/18 10:28:42;;;;;;;6.00;3.35;;;;;;;29.69;29.12;99474.61;1674632;85;27178;-61
2022/10/18 10:31:27;;;;;;;4.42;3.90;;;;;;;29.65;28.87;99466.81;1656683;86;25702;-58
2022/10/18 10:34:14;;;;;;;5.15;3.40;;;;;;;29.76;28.62;99455.36;1657022;86;27572;-60
2022/10/18 10:36:50;;;;;;;6.40;4.22;;;;;;;29.85;28.81;99455.62;1655259;86;27184;-59
2022/10/18 10:39:19;;;;;;;6.17;4.05;;;;;;;29.86;29.06;99447.32;1675204;84;25689;-58
2022/10/18 10:41:55;;;;;;;4.70;3.60;;;;;;;30.05;28.96;99445.02;1656789;86;25446;-58
2022/10/18 10:44:25;;;;;;;4.90;3.72;;;;;;;30.05;28.05;99441.55;1676550;85;25666;-61
2022/10/18 10:46:51;;;;;;;;;;;;;;;30.01;27.38;99434.36;1659510;86;28215;-61
2022/10/18 10:49:26;;;;;;;3.65;3.30;;;;;;;30.13;28.14;99424.50;1679890;84;25784;-61
2022/10/18 10:52:03;;;;;;;9.00;4.37;;;;;;;30.14;27.65;99414.78;1653250;86;25715;-62
2022/10/18 10:54:35;;;;;;;5.60;3.20;;;;;;;30.10;28.01;99418.30;1688258;83;25694;-62
2022/10/18 10:57:12;;;;;;;5.42;3.83;;;;;;;30.28;26.89;99408.11;1676397;85;25492;-60
2022/10/18 10:59:51;;;;;;;7.90;3.40;;;;;;;30.22;28.35;99409.20;1657313;86;27582;-61
2022/10/18 11:02:31;;;;;;;7.70;3.47;;;;;;;30.12;28.38;99403.91;1680110;85;25622;-61
2022/10/18 11:05:24;;;;;;;5.10;3.60;;;;;;;30.23;27.62;99399.52;1681823;85;25593;-61
2022/10/18 11:08:01;;;;;;;3.98;3.47;;;;;;;30.16;27.40;99402.41;1670180;85;26409;-62
2022/10/18 11:10:31;;;;;;;4.08;3.40;;;;;;;30.18;28.30;99403.62;1668722;85;25638;-57
2022/10/18 11:13:26;;;;;;;5.87;3.70;;;;;;;30.33;28.45;99401.94;1645722;85;29034;-59
2022/10/18 11:16:12;;;;;;;6.00;3.90;;;;;;;30.57;28.00;99391.20;1667025;85;25782;-61
2022/10/18 11:18:45;;;;;;;8.05;3.83;;;;;;;30.61;27.36;99392.73;1667344;85;25830;-59
2022/10/18 11:21:19;;;;;;;4.75;3.92;;;;;;;30.88;26.56;99385.38;1655753;85;26590;-61
2022/10/18 11:23:45;;;;;;;6.25;4.00;;;;;;;30.70;27.20;99387.91;1667934;85;25541;-61
2022/10/18 11:26:51;;;;;;;5.80;3.60;;;;;;;30.78;27.35;99380.11;1667999;85;28748;-63
2022/10/18 11:29:33;;;;;;;6.60;3.60;;;;;;;31.02;27.83;99373.73;1669392;85;25689;-62
2022/10/18 11:32:56;;;;;;;5.20;3.25;;;;;;;30.92;25.83;99374.77;1626376;88;25830;-58
2022/10/18 11:36:12;;;;;;;5.37;3.40;;;;;;;30.83;26.85;99368.89;1608429;87;25842;-60
2022/10/18 11:39:16;;;;;;;3.40;3.10;;;;;;;30.58;26.78;99364.52;1582378;90;25600;-61
2022/10/18 11:42:18;;;;;;;5.62;3.33;;;;;;;30.49;26.66;99361.66;1569747;91;27526;-61
2022/10/18 11:45:02;;;;;;;6.53;3.22;;;;;;;30.67;27.61;99352.81;1595301;89;25718;-61
2022/10/18 11:48:13;;;;;;;5.67;3.70;;;;;;;30.97;26.39;99353.02;1602596;88;25772;-61
2022/10/18 11:51:20;;;;;;;7.53;3.90;;;;;;;30.87;25.83;99342.12;1604532;88;25779;-57
2022/10/18 11:54:20;;;;;;;4.30;3.87;;;;;;;30.84;25.78;99331.68;1613326;87;25770;-61
2022/10/18 11:57:11;;;;;;;6.92;3.60;;;;;;;30.62;25.98;99334.15;1617383;88;28335;-59